sensor_id;sensor_type;location;lat;lon;timestamp;P1;durP1;ratioP1;P2;durP2;ratioP2
21621;SDS011;10973;46.706;12.340;2023-11-19T00:00:06;5.47;;;2.87;;
21621;SDS011;10973;46.706;12.340;2023-11-19T00:02:34;6.63;;;2.50;;
21621;SDS011;10973;46.706;12.340;2023-11-19T00:05:02;5.87;;;2.37;;
21621;SDS011;10973;46.706;12.340;2023-11-19T00:07:29;4.70;;;2.10;;
21621;SDS011;10973;46.706;12.340;2023-11-19T00:10:01;4.27;;;2.77;;
21621;SDS011;10973;46.706;12.340;2023-11-19T00:12:29;5.13;;;2.80;;
21621;SDS011;10973;46.706;12.340;2023-11-19T00:14:56;7.03;;;2.53;;
21621;SDS011;10973;46.706;12.340;2023-11-19T00:17:24;8.03;;;2.57;;
21621;SDS011;10973;46.706;12.340;2023-11-19T00:19:51;7.10;;;2.60;;
21621;SDS011;10973;46.706;12.340;2023-11-19T00:22:18;10.87;;;2.93;;
21621;SDS011;10973;46.706;12.340;2023-11-19T00:24:46;8.07;;;2.83;;
21621;SDS011;10973;46.706;12.340;2023-11-19T00:27:14;4.47;;;2.70;;
21621;SDS011;10973;46.706;12.340;2023-11-19T00:29:41;8.07;;;3.33;;
21621;SDS011;10973;46.706;12.340;2023-11-19T00:32:09;7.27;;;3.47;;
21621;SDS011;10973;46.706;12.340;2023-11-19T00:34:36;8.43;;;3.80;;
21621;SDS011;10973;46.706;12.340;2023-11-19T00:37:04;6.40;;;3.20;;
21621;SDS011;10973;46.706;12.340;2023-11-19T00:39:32;9.03;;;4.77;;
21621;SDS011;10973;46.706;12.340;2023-11-19T00:41:59;8.50;;;3.10;;
21621;SDS011;10973;46.706;12.340;2023-11-19T00:44:27;6.80;;;3.03;;
21621;SDS011;10973;46.706;12.340;2023-11-19T00:46:54;8.83;;;2.23;;
21621;SDS011;10973;46.706;12.340;2023-11-19T00:49:22;7.93;;;2.93;;
21621;SDS011;10973;46.706;12.340;2023-11-19T00:51:50;6.93;;;2.30;;
21621;SDS011;10973;46.706;12.340;2023-11-19T00:54:17;8.53;;;2.90;;
21621;SDS011;10973;46.706;12.340;2023-11-19T00:56:45;5.10;;;2.90;;
21621;SDS011;10973;46.706;12.340;2023-11-19T00:59:13;7.33;;;2.50;;
21621;SDS011;10973;46.706;12.340;2023-11-19T01:01:40;6.27;;;2.43;;
21621;SDS011;10973;46.706;12.340;2023-11-19T01:04:07;5.30;;;2.37;;
21621;SDS011;10973;46.706;12.340;2023-11-19T01:06:35;7.53;;;2.77;;
21621;SDS011;10973;46.706;12.340;2023-11-19T01:09:15;4.30;;;2.87;;
21621;SDS011;10973;46.706;12.340;2023-11-19T01:11:42;3.10;;;2.80;;
21621;SDS011;10973;46.706;12.340;2023-11-19T01:14:09;5.43;;;2.73;;
21621;SDS011;10973;46.706;12.340;2023-11-19T01:16:37;9.00;;;2.53;;
21621;SDS011;10973;46.706;12.340;2023-11-19T01:19:04;3.70;;;2.07;;
21621;SDS011;10973;46.706;12.340;2023-11-19T01:21:43;11.03;;;2.73;;
21621;SDS011;10973;46.706;12.340;2023-11-19T01:24:10;5.10;;;2.10;;
21621;SDS011;10973;46.706;12.340;2023-11-19T01:26:38;8.27;;;2.23;;
21621;SDS011;10973;46.706;12.340;2023-11-19T01:29:05;5.93;;;2.07;;
21621;SDS011;10973;46.706;12.340;2023-11-19T01:31:33;7.20;;;2.37;;
21621;SDS011;10973;46.706;12.340;2023-11-19T01:34:00;5.00;;;1.90;;
21621;SDS011;10973;46.706;12.340;2023-11-19T01:36:28;6.90;;;2.60;;
21621;SDS011;10973;46.706;12.340;2023-11-19T01:38:56;8.70;;;2.30;;
21621;SDS011;10973;46.706;12.340;2023-11-19T01:41:23;4.80;;;1.87;;
21621;SDS011;10973;46.706;12.340;2023-11-19T01:43:51;5.93;;;2.10;;
21621;SDS011;10973;46.706;12.340;2023-11-19T01:46:18;1.80;;;1.63;;
21621;SDS011;10973;46.706;12.340;2023-11-19T01:48:46;4.27;;;2.00;;
21621;SDS011;10973;46.706;12.340;2023-11-19T01:51:14;6.60;;;1.97;;
21621;SDS011;10973;46.706;12.340;2023-11-19T01:53:43;6.70;;;1.87;;
21621;SDS011;10973;46.706;12.340;2023-11-19T01:56:12;3.10;;;1.83;;
21621;SDS011;10973;46.706;12.340;2023-11-19T01:58:41;7.70;;;1.80;;
21621;SDS011;10973;46.706;12.340;2023-11-19T02:01:12;3.83;;;1.70;;
21621;SDS011;10973;46.706;12.340;2023-11-19T02:03:42;2.57;;;1.73;;
21621;SDS011;10973;46.706;12.340;2023-11-19T02:06:10;3.13;;;1.90;;
21621;SDS011;10973;46.706;12.340;2023-11-19T02:08:37;2.97;;;1.70;;
21621;SDS011;10973;46.706;12.340;2023-11-19T02:11:05;2.67;;;2.10;;
21621;SDS011;10973;46.706;12.340;2023-11-19T02:13:32;1.93;;;1.80;;
21621;SDS011;10973;46.706;12.340;2023-11-19T02:16:00;8.40;;;1.67;;
21621;SDS011;10973;46.706;12.340;2023-11-19T02:18:28;5.57;;;1.60;;
21621;SDS011;10973;46.706;12.340;2023-11-19T02:20:57;2.70;;;2.00;;
21621;SDS011;10973;46.706;12.340;2023-11-19T02:23:28;4.97;;;1.60;;
21621;SDS011;10973;46.706;12.340;2023-11-19T02:26:23;4.30;;;2.17;;
21621;SDS011;10973;46.706;12.340;2023-11-19T02:28:55;3.33;;;1.80;;
21621;SDS011;10973;46.706;12.340;2023-11-19T02:31:23;2.93;;;1.87;;
21621;SDS011;10973;46.706;12.340;2023-11-19T02:33:50;4.43;;;1.80;;
21621;SDS011;10973;46.706;12.340;2023-11-19T02:36:18;7.27;;;2.03;;
21621;SDS011;10973;46.706;12.340;2023-11-19T02:38:45;5.70;;;2.03;;
21621;SDS011;10973;46.706;12.340;2023-11-19T02:41:13;3.57;;;1.90;;
21621;SDS011;10973;46.706;12.340;2023-11-19T02:43:41;2.93;;;1.83;;
21621;SDS011;10973;46.706;12.340;2023-11-19T02:46:09;4.43;;;1.70;;
21621;SDS011;10973;46.706;12.340;2023-11-19T02:48:40;3.70;;;2.20;;
21621;SDS011;10973;46.706;12.340;2023-11-19T02:51:07;5.90;;;1.97;;
21621;SDS011;10973;46.706;12.340;2023-11-19T02:53:35;4.53;;;1.70;;
21621;SDS011;10973;46.706;12.340;2023-11-19T02:56:03;2.63;;;2.07;;
21621;SDS011;10973;46.706;12.340;2023-11-19T02:58:31;1.73;;;1.50;;
21621;SDS011;10973;46.706;12.340;2023-11-19T03:00:59;4.90;;;1.67;;
21621;SDS011;10973;46.706;12.340;2023-11-19T03:03:27;4.43;;;2.33;;
21621;SDS011;10973;46.706;12.340;2023-11-19T03:05:55;1.70;;;1.60;;
21621;SDS011;10973;46.706;12.340;2023-11-19T03:08:24;3.57;;;1.60;;
21621;SDS011;10973;46.706;12.340;2023-11-19T03:10:51;3.50;;;2.30;;
21621;SDS011;10973;46.706;12.340;2023-11-19T03:13:19;3.13;;;2.03;;
21621;SDS011;10973;46.706;12.340;2023-11-19T03:15:46;2.77;;;1.67;;
21621;SDS011;10973;46.706;12.340;2023-11-19T03:18:14;3.67;;;1.87;;
21621;SDS011;10973;46.706;12.340;2023-11-19T03:20:41;1.60;;;1.50;;
21621;SDS011;10973;46.706;12.340;2023-11-19T03:23:09;9.00;;;1.87;;
21621;SDS011;10973;46.706;12.340;2023-11-19T03:25:36;4.83;;;1.67;;
21621;SDS011;10973;46.706;12.340;2023-11-19T03:28:04;3.30;;;1.83;;
21621;SDS011;10973;46.706;12.340;2023-11-19T03:30:33;2.57;;;1.70;;
21621;SDS011;10973;46.706;12.340;2023-11-19T03:33:01;3.27;;;1.73;;
21621;SDS011;10973;46.706;12.340;2023-11-19T03:35:30;2.93;;;2.10;;
21621;SDS011;10973;46.706;12.340;2023-11-19T03:37:57;3.10;;;1.67;;
21621;SDS011;10973;46.706;12.340;2023-11-19T03:40:25;1.77;;;1.50;;
21621;SDS011;10973;46.706;12.340;2023-11-19T03:42:52;4.17;;;1.70;;
21621;SDS011;10973;46.706;12.340;2023-11-19T03:45:22;4.73;;;1.83;;
21621;SDS011;10973;46.706;12.340;2023-11-19T03:47:50;6.20;;;1.90;;
21621;SDS011;10973;46.706;12.340;2023-11-19T03:50:18;5.20;;;2.50;;
21621;SDS011;10973;46.706;12.340;2023-11-19T03:52:46;6.70;;;2.60;;
21621;SDS011;10973;46.706;12.340;2023-11-19T03:55:14;11.00;;;3.50;;
21621;SDS011;10973;46.706;12.340;2023-11-19T03:57:41;8.43;;;2.93;;
21621;SDS011;10973;46.706;12.340;2023-11-19T04:00:09;7.30;;;2.10;;
21621;SDS011;10973;46.706;12.340;2023-11-19T04:02:37;4.20;;;2.27;;
21621;SDS011;10973;46.706;12.340;2023-11-19T04:05:06;4.60;;;1.80;;
21621;SDS011;10973;46.706;12.340;2023-11-19T04:07:34;3.73;;;2.03;;
21621;SDS011;10973;46.706;12.340;2023-11-19T04:10:02;4.87;;;2.47;;
21621;SDS011;10973;46.706;12.340;2023-11-19T04:12:29;2.83;;;2.03;;
21621;SDS011;10973;46.706;12.340;2023-11-19T04:14:57;4.97;;;2.30;;
21621;SDS011;10973;46.706;12.340;2023-11-19T04:17:28;3.00;;;2.03;;
21621;SDS011;10973;46.706;12.340;2023-11-19T04:19:55;5.03;;;1.90;;
21621;SDS011;10973;46.706;12.340;2023-11-19T04:22:23;2.27;;;2.00;;
21621;SDS011;10973;46.706;12.340;2023-11-19T04:24:51;6.00;;;2.47;;
21621;SDS011;10973;46.706;12.340;2023-11-19T04:27:18;4.67;;;2.70;;
21621;SDS011;10973;46.706;12.340;2023-11-19T04:29:46;4.00;;;2.50;;
21621;SDS011;10973;46.706;12.340;2023-11-19T04:32:13;2.43;;;2.07;;
21621;SDS011;10973;46.706;12.340;2023-11-19T04:34:41;2.47;;;1.90;;
21621;SDS011;10973;46.706;12.340;2023-11-19T04:37:08;4.67;;;2.17;;
21621;SDS011;10973;46.706;12.340;2023-11-19T04:39:39;2.73;;;2.03;;
21621;SDS011;10973;46.706;12.340;2023-11-19T04:42:07;6.37;;;2.10;;
21621;SDS011;10973;46.706;12.340;2023-11-19T04:44:35;4.80;;;2.67;;
21621;SDS011;10973;46.706;12.340;2023-11-19T04:47:05;4.47;;;2.47;;
21621;SDS011;10973;46.706;12.340;2023-11-19T04:49:33;4.27;;;2.40;;
21621;SDS011;10973;46.706;12.340;2023-11-19T04:52:00;7.60;;;3.03;;
21621;SDS011;10973;46.706;12.340;2023-11-19T04:54:27;6.87;;;2.93;;
21621;SDS011;10973;46.706;12.340;2023-11-19T04:56:55;9.97;;;2.80;;
21621;SDS011;10973;46.706;12.340;2023-11-19T04:59:22;8.47;;;3.03;;
21621;SDS011;10973;46.706;12.340;2023-11-19T05:01:50;5.07;;;2.50;;
21621;SDS011;10973;46.706;12.340;2023-11-19T05:04:17;3.63;;;2.50;;
21621;SDS011;10973;46.706;12.340;2023-11-19T05:06:45;5.60;;;2.60;;
21621;SDS011;10973;46.706;12.340;2023-11-19T05:09:12;5.83;;;2.70;;
21621;SDS011;10973;46.706;12.340;2023-11-19T05:11:40;6.23;;;2.50;;
21621;SDS011;10973;46.706;12.340;2023-11-19T05:14:10;2.43;;;2.20;;
21621;SDS011;10973;46.706;12.340;2023-11-19T05:16:41;2.43;;;2.17;;
21621;SDS011;10973;46.706;12.340;2023-11-19T05:19:09;2.60;;;2.40;;
21621;SDS011;10973;46.706;12.340;2023-11-19T05:21:36;2.80;;;2.50;;
21621;SDS011;10973;46.706;12.340;2023-11-19T05:24:04;2.67;;;2.00;;
21621;SDS011;10973;46.706;12.340;2023-11-19T05:26:31;5.73;;;3.63;;
21621;SDS011;10973;46.706;12.340;2023-11-19T05:28:59;7.43;;;3.70;;
21621;SDS011;10973;46.706;12.340;2023-11-19T05:31:27;17.60;;;9.70;;
21621;SDS011;10973;46.706;12.340;2023-11-19T05:33:54;14.80;;;10.00;;
21621;SDS011;10973;46.706;12.340;2023-11-19T05:36:22;12.63;;;9.20;;
21621;SDS011;10973;46.706;12.340;2023-11-19T05:38:49;9.83;;;6.50;;
21621;SDS011;10973;46.706;12.340;2023-11-19T05:41:17;6.70;;;4.40;;
21621;SDS011;10973;46.706;12.340;2023-11-19T05:43:44;5.93;;;4.30;;
21621;SDS011;10973;46.706;12.340;2023-11-19T05:46:12;8.17;;;5.10;;
21621;SDS011;10973;46.706;12.340;2023-11-19T05:48:42;6.73;;;4.77;;
21621;SDS011;10973;46.706;12.340;2023-11-19T05:51:10;9.50;;;5.23;;
21621;SDS011;10973;46.706;12.340;2023-11-19T05:53:37;6.10;;;4.37;;
21621;SDS011;10973;46.706;12.340;2023-11-19T05:56:05;14.30;;;9.60;;
21621;SDS011;10973;46.706;12.340;2023-11-19T05:58:33;12.00;;;7.87;;
21621;SDS011;10973;46.706;12.340;2023-11-19T06:01:00;11.53;;;7.90;;
21621;SDS011;10973;46.706;12.340;2023-11-19T06:03:28;16.53;;;10.83;;
21621;SDS011;10973;46.706;12.340;2023-11-19T06:05:56;18.87;;;10.10;;
21621;SDS011;10973;46.706;12.340;2023-11-19T06:08:23;14.47;;;10.87;;
21621;SDS011;10973;46.706;12.340;2023-11-19T06:10:51;17.30;;;11.87;;
21621;SDS011;10973;46.706;12.340;2023-11-19T06:13:18;19.50;;;12.33;;
21621;SDS011;10973;46.706;12.340;2023-11-19T06:15:48;13.93;;;9.97;;
21621;SDS011;10973;46.706;12.340;2023-11-19T06:18:16;10.43;;;8.70;;
21621;SDS011;10973;46.706;12.340;2023-11-19T06:20:43;7.07;;;6.17;;
21621;SDS011;10973;46.706;12.340;2023-11-19T06:23:11;5.23;;;4.30;;
21621;SDS011;10973;46.706;12.340;2023-11-19T06:25:38;6.60;;;5.90;;
21621;SDS011;10973;46.706;12.340;2023-11-19T06:28:06;9.23;;;6.10;;
21621;SDS011;10973;46.706;12.340;2023-11-19T06:30:34;8.17;;;7.37;;
21621;SDS011;10973;46.706;12.340;2023-11-19T06:33:01;10.80;;;9.07;;
21621;SDS011;10973;46.706;12.340;2023-11-19T06:35:29;5.93;;;5.20;;
21621;SDS011;10973;46.706;12.340;2023-11-19T06:37:56;11.90;;;6.10;;
21621;SDS011;10973;46.706;12.340;2023-11-19T06:40:24;6.10;;;5.50;;
21621;SDS011;10973;46.706;12.340;2023-11-19T06:42:52;4.67;;;4.20;;
21621;SDS011;10973;46.706;12.340;2023-11-19T06:45:19;4.60;;;3.47;;
21621;SDS011;10973;46.706;12.340;2023-11-19T06:47:47;8.03;;;5.20;;
21621;SDS011;10973;46.706;12.340;2023-11-19T06:50:15;6.43;;;5.50;;
21621;SDS011;10973;46.706;12.340;2023-11-19T06:52:43;7.37;;;5.47;;
21621;SDS011;10973;46.706;12.340;2023-11-19T06:55:10;5.57;;;4.70;;
21621;SDS011;10973;46.706;12.340;2023-11-19T06:57:38;5.70;;;4.80;;
21621;SDS011;10973;46.706;12.340;2023-11-19T07:00:06;7.40;;;4.67;;
21621;SDS011;10973;46.706;12.340;2023-11-19T07:02:34;10.77;;;6.90;;
21621;SDS011;10973;46.706;12.340;2023-11-19T07:05:02;18.27;;;10.77;;
21621;SDS011;10973;46.706;12.340;2023-11-19T07:07:31;18.07;;;10.63;;
21621;SDS011;10973;46.706;12.340;2023-11-19T07:09:59;21.50;;;11.60;;
21621;SDS011;10973;46.706;12.340;2023-11-19T07:12:27;13.30;;;8.47;;
21621;SDS011;10973;46.706;12.340;2023-11-19T07:14:54;10.07;;;5.03;;
21621;SDS011;10973;46.706;12.340;2023-11-19T07:17:22;9.83;;;4.60;;
21621;SDS011;10973;46.706;12.340;2023-11-19T07:19:49;5.70;;;5.13;;
21621;SDS011;10973;46.706;12.340;2023-11-19T07:22:17;8.50;;;6.27;;
21621;SDS011;10973;46.706;12.340;2023-11-19T07:24:44;5.73;;;4.80;;
21621;SDS011;10973;46.706;12.340;2023-11-19T07:27:12;3.50;;;3.20;;
21621;SDS011;10973;46.706;12.340;2023-11-19T07:29:40;5.97;;;4.20;;
21621;SDS011;10973;46.706;12.340;2023-11-19T07:32:07;5.50;;;4.27;;
21621;SDS011;10973;46.706;12.340;2023-11-19T07:34:35;4.33;;;3.20;;
21621;SDS011;10973;46.706;12.340;2023-11-19T07:37:03;4.53;;;2.90;;
21621;SDS011;10973;46.706;12.340;2023-11-19T07:39:30;3.30;;;3.00;;
21621;SDS011;10973;46.706;12.340;2023-11-19T07:41:57;3.73;;;3.43;;
21621;SDS011;10973;46.706;12.340;2023-11-19T07:44:25;3.30;;;3.00;;
21621;SDS011;10973;46.706;12.340;2023-11-19T07:46:52;3.50;;;3.20;;
21621;SDS011;10973;46.706;12.340;2023-11-19T07:49:20;4.53;;;2.80;;
21621;SDS011;10973;46.706;12.340;2023-11-19T07:51:48;7.47;;;5.70;;
21621;SDS011;10973;46.706;12.340;2023-11-19T07:54:15;5.63;;;4.83;;
21621;SDS011;10973;46.706;12.340;2023-11-19T07:56:43;4.77;;;4.00;;
21621;SDS011;10973;46.706;12.340;2023-11-19T07:59:10;4.97;;;4.33;;
21621;SDS011;10973;46.706;12.340;2023-11-19T08:01:38;4.73;;;4.00;;
21621;SDS011;10973;46.706;12.340;2023-11-19T08:04:05;4.80;;;3.80;;
21621;SDS011;10973;46.706;12.340;2023-11-19T08:06:33;5.30;;;3.90;;
21621;SDS011;10973;46.706;12.340;2023-11-19T08:09:01;6.10;;;4.03;;
21621;SDS011;10973;46.706;12.340;2023-11-19T08:11:29;3.70;;;3.40;;
21621;SDS011;10973;46.706;12.340;2023-11-19T08:13:56;2.90;;;2.70;;
21621;SDS011;10973;46.706;12.340;2023-11-19T08:16:24;2.33;;;2.17;;
21621;SDS011;10973;46.706;12.340;2023-11-19T08:18:51;2.50;;;2.30;;
21621;SDS011;10973;46.706;12.340;2023-11-19T08:21:18;2.53;;;2.33;;
21621;SDS011;10973;46.706;12.340;2023-11-19T08:23:46;2.20;;;2.10;;
21621;SDS011;10973;46.706;12.340;2023-11-19T08:26:14;2.07;;;1.97;;
21621;SDS011;10973;46.706;12.340;2023-11-19T08:28:45;2.03;;;1.93;;
21621;SDS011;10973;46.706;12.340;2023-11-19T08:31:13;2.03;;;1.93;;
21621;SDS011;10973;46.706;12.340;2023-11-19T08:33:40;1.90;;;1.80;;
21621;SDS011;10973;46.706;12.340;2023-11-19T08:36:08;1.73;;;1.63;;
21621;SDS011;10973;46.706;12.340;2023-11-19T08:38:41;3.67;;;2.03;;
21621;SDS011;10973;46.706;12.340;2023-11-19T08:41:09;1.90;;;1.80;;
21621;SDS011;10973;46.706;12.340;2023-11-19T08:43:36;1.70;;;1.60;;
21621;SDS011;10973;46.706;12.340;2023-11-19T08:46:08;1.70;;;1.57;;
21621;SDS011;10973;46.706;12.340;2023-11-19T08:48:37;1.30;;;1.30;;
21621;SDS011;10973;46.706;12.340;2023-11-19T08:51:05;1.23;;;1.23;;
21621;SDS011;10973;46.706;12.340;2023-11-19T08:53:33;1.30;;;1.30;;
21621;SDS011;10973;46.706;12.340;2023-11-19T08:56:01;1.30;;;1.20;;
21621;SDS011;10973;46.706;12.340;2023-11-19T08:58:29;1.30;;;1.30;;
21621;SDS011;10973;46.706;12.340;2023-11-19T09:00:56;1.30;;;1.30;;
21621;SDS011;10973;46.706;12.340;2023-11-19T09:03:24;1.27;;;1.23;;
21621;SDS011;10973;46.706;12.340;2023-11-19T09:05:52;1.70;;;1.40;;
21621;SDS011;10973;46.706;12.340;2023-11-19T09:08:20;1.50;;;1.40;;
21621;SDS011;10973;46.706;12.340;2023-11-19T09:10:47;1.30;;;1.30;;
21621;SDS011;10973;46.706;12.340;2023-11-19T09:13:15;1.50;;;1.40;;
21621;SDS011;10973;46.706;12.340;2023-11-19T09:15:44;1.57;;;1.53;;
21621;SDS011;10973;46.706;12.340;2023-11-19T09:18:16;1.40;;;1.40;;
21621;SDS011;10973;46.706;12.340;2023-11-19T09:20:43;1.50;;;1.40;;
21621;SDS011;10973;46.706;12.340;2023-11-19T09:23:13;1.20;;;1.20;;
21621;SDS011;10973;46.706;12.340;2023-11-19T09:25:41;1.23;;;1.23;;
21621;SDS011;10973;46.706;12.340;2023-11-19T09:28:11;1.77;;;1.57;;
21621;SDS011;10973;46.706;12.340;2023-11-19T09:30:39;1.40;;;1.30;;
21621;SDS011;10973;46.706;12.340;2023-11-19T09:33:06;1.10;;;1.00;;
21621;SDS011;10973;46.706;12.340;2023-11-19T09:35:34;1.17;;;1.10;;
21621;SDS011;10973;46.706;12.340;2023-11-19T09:38:01;1.30;;;1.20;;
21621;SDS011;10973;46.706;12.340;2023-11-19T09:40:31;1.27;;;1.20;;
21621;SDS011;10973;46.706;12.340;2023-11-19T09:43:01;1.10;;;1.10;;
21621;SDS011;10973;46.706;12.340;2023-11-19T09:45:29;1.30;;;1.20;;
21621;SDS011;10973;46.706;12.340;2023-11-19T09:48:13;1.40;;;1.30;;
21621;SDS011;10973;46.706;12.340;2023-11-19T09:50:46;1.10;;;1.10;;
21621;SDS011;10973;46.706;12.340;2023-11-19T09:53:15;1.00;;;1.00;;
21621;SDS011;10973;46.706;12.340;2023-11-19T09:55:42;0.90;;;0.90;;
21621;SDS011;10973;46.706;12.340;2023-11-19T09:58:11;1.00;;;1.00;;
21621;SDS011;10973;46.706;12.340;2023-11-19T10:00:41;1.20;;;1.20;;
21621;SDS011;10973;46.706;12.340;2023-11-19T10:03:09;0.87;;;0.87;;
21621;SDS011;10973;46.706;12.340;2023-11-19T10:05:39;1.00;;;1.00;;
21621;SDS011;10973;46.706;12.340;2023-11-19T10:08:07;1.10;;;1.10;;
21621;SDS011;10973;46.706;12.340;2023-11-19T10:10:35;1.00;;;1.00;;
21621;SDS011;10973;46.706;12.340;2023-11-19T10:13:03;5.87;;;5.40;;
21621;SDS011;10973;46.706;12.340;2023-11-19T10:15:31;1.17;;;1.17;;
21621;SDS011;10973;46.706;12.340;2023-11-19T10:18:04;1.00;;;1.00;;
21621;SDS011;10973;46.706;12.340;2023-11-19T10:20:40;1.10;;;1.10;;
21621;SDS011;10973;46.706;12.340;2023-11-19T10:23:08;0.93;;;0.93;;
21621;SDS011;10973;46.706;12.340;2023-11-19T10:25:35;0.93;;;0.93;;
21621;SDS011;10973;46.706;12.340;2023-11-19T10:28:02;1.53;;;0.93;;
21621;SDS011;10973;46.706;12.340;2023-11-19T10:30:30;1.00;;;1.00;;
21621;SDS011;10973;46.706;12.340;2023-11-19T10:35:53;1.00;;;1.00;;
21621;SDS011;10973;46.706;12.340;2023-11-19T10:38:26;1.47;;;0.93;;
21621;SDS011;10973;46.706;12.340;2023-11-19T10:40:54;2.87;;;1.10;;
21621;SDS011;10973;46.706;12.340;2023-11-19T10:43:22;0.90;;;0.90;;
21621;SDS011;10973;46.706;12.340;2023-11-19T10:45:50;0.80;;;0.80;;
21621;SDS011;10973;46.706;12.340;2023-11-19T10:48:19;1.00;;;1.00;;
21621;SDS011;10973;46.706;12.340;2023-11-19T10:50:48;1.00;;;1.00;;
21621;SDS011;10973;46.706;12.340;2023-11-19T10:53:20;1.00;;;0.90;;
21621;SDS011;10973;46.706;12.340;2023-11-19T10:55:51;1.17;;;1.10;;
21621;SDS011;10973;46.706;12.340;2023-11-19T10:58:24;1.00;;;1.00;;
21621;SDS011;10973;46.706;12.340;2023-11-19T11:00:55;0.90;;;0.90;;
21621;SDS011;10973;46.706;12.340;2023-11-19T11:03:29;1.10;;;1.10;;
21621;SDS011;10973;46.706;12.340;2023-11-19T11:06:06;1.10;;;1.10;;
21621;SDS011;10973;46.706;12.340;2023-11-19T11:08:36;0.90;;;0.90;;
21621;SDS011;10973;46.706;12.340;2023-11-19T11:11:07;1.00;;;1.00;;
21621;SDS011;10973;46.706;12.340;2023-11-19T11:13:40;6.30;;;5.70;;
21621;SDS011;10973;46.706;12.340;2023-11-19T11:16:11;1.03;;;1.03;;
21621;SDS011;10973;46.706;12.340;2023-11-19T11:18:41;1.30;;;1.20;;
21621;SDS011;10973;46.706;12.340;2023-11-19T11:21:09;1.10;;;1.10;;
21621;SDS011;10973;46.706;12.340;2023-11-19T11:30:02;0.90;;;0.90;;
21621;SDS011;10973;46.706;12.340;2023-11-19T11:38:42;1.20;;;1.20;;
21621;SDS011;10973;46.706;12.340;2023-11-19T11:43:54;2.03;;;1.93;;
21621;SDS011;10973;46.706;12.340;2023-11-19T11:49:00;1.00;;;1.00;;
21621;SDS011;10973;46.706;12.340;2023-11-19T12:02:12;0.80;;;0.80;;
21621;SDS011;10973;46.706;12.340;2023-11-19T12:04:50;2.00;;;0.97;;
21621;SDS011;10973;46.706;12.340;2023-11-19T12:07:23;0.93;;;0.93;;
21621;SDS011;10973;46.706;12.340;2023-11-19T12:10:07;1.03;;;1.03;;
21621;SDS011;10973;46.706;12.340;2023-11-19T12:12:36;0.93;;;0.93;;
21621;SDS011;10973;46.706;12.340;2023-11-19T12:15:07;0.90;;;0.90;;
21621;SDS011;10973;46.706;12.340;2023-11-19T12:17:36;0.77;;;0.77;;
21621;SDS011;10973;46.706;12.340;2023-11-19T12:20:14;0.80;;;0.80;;
21621;SDS011;10973;46.706;12.340;2023-11-19T12:22:59;0.90;;;0.90;;
21621;SDS011;10973;46.706;12.340;2023-11-19T12:25:33;1.40;;;1.40;;
21621;SDS011;10973;46.706;12.340;2023-11-19T12:28:01;1.00;;;1.00;;
21621;SDS011;10973;46.706;12.340;2023-11-19T12:30:29;1.20;;;1.10;;
21621;SDS011;10973;46.706;12.340;2023-11-19T12:32:57;1.60;;;1.50;;
21621;SDS011;10973;46.706;12.340;2023-11-19T12:35:25;1.13;;;1.13;;
21621;SDS011;10973;46.706;12.340;2023-11-19T12:37:52;1.00;;;1.00;;
21621;SDS011;10973;46.706;12.340;2023-11-19T12:40:24;1.93;;;1.80;;
21621;SDS011;10973;46.706;12.340;2023-11-19T12:42:52;1.40;;;1.40;;
21621;SDS011;10973;46.706;12.340;2023-11-19T12:45:21;1.83;;;1.73;;
21621;SDS011;10973;46.706;12.340;2023-11-19T12:48:04;1.57;;;1.50;;
21621;SDS011;10973;46.706;12.340;2023-11-19T12:53:25;2.10;;;1.90;;
21621;SDS011;10973;46.706;12.340;2023-11-19T12:55:53;1.30;;;1.20;;
21621;SDS011;10973;46.706;12.340;2023-11-19T12:58:31;1.20;;;1.20;;
21621;SDS011;10973;46.706;12.340;2023-11-19T13:01:04;1.70;;;1.60;;
21621;SDS011;10973;46.706;12.340;2023-11-19T13:03:36;1.80;;;1.80;;
21621;SDS011;10973;46.706;12.340;2023-11-19T13:06:07;1.50;;;1.50;;
21621;SDS011;10973;46.706;12.340;2023-11-19T13:08:39;1.40;;;1.30;;
21621;SDS011;10973;46.706;12.340;2023-11-19T13:11:14;1.17;;;1.10;;
21621;SDS011;10973;46.706;12.340;2023-11-19T13:13:57;1.10;;;1.00;;
21621;SDS011;10973;46.706;12.340;2023-11-19T13:16:32;1.27;;;1.23;;
21621;SDS011;10973;46.706;12.340;2023-11-19T13:19:00;3.77;;;3.17;;
21621;SDS011;10973;46.706;12.340;2023-11-19T13:21:28;3.73;;;3.43;;
21621;SDS011;10973;46.706;12.340;2023-11-19T13:23:57;9.43;;;6.53;;
21621;SDS011;10973;46.706;12.340;2023-11-19T13:26:25;22.27;;;14.70;;
21621;SDS011;10973;46.706;12.340;2023-11-19T13:28:52;12.10;;;8.80;;
21621;SDS011;10973;46.706;12.340;2023-11-19T13:31:20;17.93;;;12.23;;
21621;SDS011;10973;46.706;12.340;2023-11-19T13:33:48;15.70;;;11.53;;
21621;SDS011;10973;46.706;12.340;2023-11-19T13:36:16;4.83;;;3.13;;
21621;SDS011;10973;46.706;12.340;2023-11-19T13:38:44;5.13;;;4.13;;
21621;SDS011;10973;46.706;12.340;2023-11-19T13:41:12;7.20;;;6.23;;
21621;SDS011;10973;46.706;12.340;2023-11-19T13:43:42;7.83;;;6.90;;
21621;SDS011;10973;46.706;12.340;2023-11-19T13:46:10;6.23;;;5.63;;
21621;SDS011;10973;46.706;12.340;2023-11-19T13:48:39;7.73;;;6.93;;
21621;SDS011;10973;46.706;12.340;2023-11-19T13:51:06;9.47;;;7.57;;
21621;SDS011;10973;46.706;12.340;2023-11-19T13:53:34;15.83;;;10.33;;
21621;SDS011;10973;46.706;12.340;2023-11-19T13:56:05;8.63;;;6.03;;
21621;SDS011;10973;46.706;12.340;2023-11-19T13:58:33;5.07;;;4.23;;
21621;SDS011;10973;46.706;12.340;2023-11-19T14:01:01;5.93;;;4.93;;
21621;SDS011;10973;46.706;12.340;2023-11-19T14:03:29;6.67;;;5.37;;
21621;SDS011;10973;46.706;12.340;2023-11-19T14:05:57;4.03;;;3.57;;
21621;SDS011;10973;46.706;12.340;2023-11-19T14:08:24;3.10;;;2.60;;
21621;SDS011;10973;46.706;12.340;2023-11-19T14:10:52;6.23;;;4.77;;
21621;SDS011;10973;46.706;12.340;2023-11-19T14:13:19;6.90;;;5.27;;
21621;SDS011;10973;46.706;12.340;2023-11-19T14:15:47;3.50;;;3.20;;
21621;SDS011;10973;46.706;12.340;2023-11-19T14:18:16;1.60;;;1.50;;
21621;SDS011;10973;46.706;12.340;2023-11-19T14:20:44;3.03;;;2.73;;
21621;SDS011;10973;46.706;12.340;2023-11-19T14:23:12;3.90;;;3.30;;
21621;SDS011;10973;46.706;12.340;2023-11-19T14:25:40;2.73;;;2.53;;
21621;SDS011;10973;46.706;12.340;2023-11-19T14:28:07;1.60;;;1.40;;
21621;SDS011;10973;46.706;12.340;2023-11-19T14:30:35;2.20;;;1.90;;
21621;SDS011;10973;46.706;12.340;2023-11-19T14:33:02;3.63;;;3.20;;
21621;SDS011;10973;46.706;12.340;2023-11-19T14:35:30;4.33;;;3.50;;
21621;SDS011;10973;46.706;12.340;2023-11-19T14:37:58;3.23;;;2.93;;
21621;SDS011;10973;46.706;12.340;2023-11-19T14:40:25;3.90;;;3.50;;
21621;SDS011;10973;46.706;12.340;2023-11-19T14:42:55;2.67;;;2.47;;
21621;SDS011;10973;46.706;12.340;2023-11-19T14:45:23;5.27;;;4.20;;
21621;SDS011;10973;46.706;12.340;2023-11-19T14:47:50;9.03;;;6.77;;
21621;SDS011;10973;46.706;12.340;2023-11-19T14:50:18;16.40;;;10.00;;
21621;SDS011;10973;46.706;12.340;2023-11-19T14:52:46;14.77;;;10.20;;
21621;SDS011;10973;46.706;12.340;2023-11-19T14:55:13;13.90;;;9.63;;
21621;SDS011;10973;46.706;12.340;2023-11-19T14:57:41;17.30;;;11.60;;
21621;SDS011;10973;46.706;12.340;2023-11-19T15:00:17;14.73;;;10.37;;
21621;SDS011;10973;46.706;12.340;2023-11-19T15:02:45;13.97;;;10.37;;
21621;SDS011;10973;46.706;12.340;2023-11-19T15:05:12;13.93;;;10.63;;
21621;SDS011;10973;46.706;12.340;2023-11-19T15:07:40;11.53;;;8.63;;
21621;SDS011;10973;46.706;12.340;2023-11-19T15:10:07;9.07;;;7.00;;
21621;SDS011;10973;46.706;12.340;2023-11-19T15:12:37;9.00;;;7.47;;
21621;SDS011;10973;46.706;12.340;2023-11-19T15:15:06;12.37;;;9.77;;